METAR stanice u blizini

 

LYBE - Beograd / Surčin, Srbija
Ažurirano: 27/01/2020 22:00
Mist, Delimično oblačno
Mist, Delimično oblačno
 Pravac vetra J
Vetar: J 7 km/h
Temperatura: 2°C
Osećaj hladnoće: 0°C
Tačka rose: 2°C
Vlažnost: 100%
Pritisak: 1018 hPa
Pregled: Mist
Oblaci: Partly Cloudy
Vidljivost: 2 km
2020/01/27 21:00 LYBE 272100Z 17004KT 1800 BR NSC 02/02 Q1018 TEMPO 1000
LYBT - Beograd / Batajnica, Srbija
Ažurirano: 27/01/2020 22:00
Mist, Pretežno oblačno
Mist, Pretežno oblačno
 Pravac vetra IJI
Vetar: IJI 6 km/h
Temperatura: 1°C
Tačka rose: 1°C
Vlažnost: 100%
Pritisak: 1018 hPa
Pregled: Mist
Oblaci: Mostly Cloudy
Vidljivost: 2 km
Cloud details: Mostly Cloudy 152 m
2020/01/27 21:00 LYBT 272100Z 12003KT 1500 BR BKN005 01/01 Q1018 NOSIG
LYVR - Vršac, Srbija
Ažurirano: 27/01/2020 22:00
Mist, Oblačno
Mist, Oblačno
 Pravac vetra JZ
Vetar: JZ 6 km/h
Temperatura: 3°C
Tačka rose: 3°C
Vlažnost: 100%
Pritisak: 1018 hPa
Pregled: Mist
Oblaci: Oblačno
Vidljivost: 3 km
Cloud details: Oblačno 122 m
2020/01/27 21:00 LYVR 272100Z AUTO 22003KT 3200 BR OVC004/// 03/03 Q1018
 
LYKV - Lađevci, Srbija
Ažurirano: 27/01/2020 22:00
Mist, Oblačno
Mist, Oblačno
 Pravac vetra I
Vetar: I 4 km/h
Temperatura: 4°C
Tačka rose: 4°C
Vlažnost: 100%
Pritisak: 1018 hPa
Pregled: Mist
Oblaci: Oblačno
Vidljivost: 2 km
Cloud details: Partly Cloudy 518 m
Oblačno 914 m
2020/01/27 21:00 LYKV 272100Z 08002KT 2000 BR SCT017 OVC030 04/04 Q1018 NOSIG
LYNI - Niš, Srbija
Ažurirano: 27/01/2020 22:00
Oblačno
Oblačno
 Pravac vetra S
Vetar: S 9 km/h
Temperatura: 4°C
Osećaj hladnoće: 2°C
Tačka rose: 3°C
Vlažnost: 93%
Pritisak: 1019 hPa
Oblaci: Oblačno
Vidljivost: 8 km
Cloud details: Oblačno 213 m
2020/01/27 21:00 LYNI 272100Z 36005KT 320V030 8000 OVC007 04/03 Q1019 NOSIG
BKPR - Priština, Srbija
Ažurirano: 27/01/2020 22:00
Mostly Cloudy
Mostly Cloudy
 Pravac vetra S
Vetar: S 7 km/h
Temperatura: 5°C
Osećaj hladnoće: 3°C
Tačka rose: 1°C
Vlažnost: 76%
Pritisak: 1017 hPa
Oblaci: Mostly Cloudy
Vidljivost: 10 km
Cloud details: Few Clouds 1219 m
Mostly Cloudy 2134 m
2020/01/27 21:00 BKPR 272100Z 35004KT 9999 FEW040 BKN070 05/01 Q1017 NOSIG RMK 17010095
 
LHPP - Pecs / Pogany, Hungary
Ažurirano: 27/01/2020 18:45
NOT Current
Magla, Oblačno
Magla, Oblačno
 Pravac vetra Z
Vetar: Z 7 km/h
Temperatura: 1°C
Osećaj hladnoće: -2°C
Tačka rose: 1°C
Vlažnost: 100%
Pritisak: 1017 hPa
Pregled: Magla
Oblaci: Oblačno
Vidljivost: 0 km
Cloud details: Oblačno 152 m
2020/01/27 17:45 LHPP 271745Z 26004KT 0300 FG OVC005 01/01 Q1017
LHUD - Szeged, Hungary
Ažurirano: 04/07/2019 01:45
NOT Current
Vedro
Vedro
 Pravac vetra S
Vetar: S 7 km/h
Temperatura: 18°C
Tačka rose: 13°C
Vlažnost: 73%
Pritisak: 1019 hPa
Pregled: Vedro
Vidljivost: greater than 10 km
2019/07/03 23:45 LHUD 032345Z 35004KT CAVOK 18/13 Q1019
LRTR - Timisoara, Romania
Ažurirano: 27/01/2020 22:00
Mist, Oblačno
Mist, Oblačno
 Pravac vetra ZJZ
Vetar: ZJZ 6 km/h
Temperatura: 3°C
Tačka rose: 3°C
Vlažnost: 100%
Pritisak: 1018 hPa
Pregled: Mist
Oblaci: Oblačno
Vidljivost: 1 km
Cloud details: Mostly Cloudy 61 m
Oblačno 305 m
2020/01/27 21:00 LRTR 272100Z 24003KT 180V260 1200 R11/1200D R29/P2000 BR BKN002 OVC010 03/03 Q1018 R11/290095
 
LRCV - Craiova, Romania
Ažurirano: 27/01/2020 22:00
Mist, Oblačno
Mist, Oblačno
 Pravac vetra Z
Vetar: Z 13 km/h
Temperatura: 4°C
Osećaj hladnoće: 1°C
Tačka rose: 4°C
Vlažnost: 100%
Pritisak: 1015 hPa
Pregled: Mist
Oblaci: Oblačno
Vidljivost: 2 km
Cloud details: Partly Cloudy 61 m
Oblačno 213 m
2020/01/27 21:00 LRCV 272100Z 26007KT 2000 BR SCT002 OVC007 04/04 Q1015 R27/29//95
LBSF - Sofia, Bulgaria
Ažurirano: 27/01/2020 22:00
Oblačno
Oblačno
 Pravac vetra Z
Vetar: Z 17 km/h
Temperatura: 5°C
Osećaj hladnoće: 2°C
Tačka rose: 3°C
Vlažnost: 87%
Pritisak: 1016 hPa
Oblaci: Oblačno
Vidljivost: 10 km
Cloud details: Few Clouds 671 m
Oblačno 884 m
2020/01/27 21:00 LBSF 272100Z 28009KT 9999 FEW022 OVC029 05/03 Q1016 R99/29//95 NOSIG
LWSK - Skoplje, Makedonija
Ažurirano: 27/01/2020 22:00
Magla, Pretežno oblačno
Magla, Pretežno oblačno
 Pravac vetra calm
Vetar: Tišina
Temperatura: 4°C
Tačka rose: 4°C
Vlažnost: 100%
Pritisak: 1018 hPa
Pregled: Magla
Oblaci: Mostly Cloudy
Vidljivost: 0 km
Cloud details: Mostly Cloudy 122 m
2020/01/27 21:00 LWSK 272100Z 00000KT 0200 R34/0350N FG BKN004 04/04 Q1018 NOSIG
 
LYPG - Podgorica, Crna Gora
Ažurirano: 27/01/2020 22:00
Patches of fog, Pretežno oblačno
Patches of fog, Pretežno oblačno
 Pravac vetra Z
Vetar: Z 4 km/h
Temperatura: 6°C
Tačka rose: 6°C
Vlažnost: 100%
Pritisak: 1019 hPa
Pregled: Patches of Fog
Oblaci: Mostly Cloudy
Vidljivost: 6 km
Cloud details: Few Clouds 396 m
Mostly Cloudy 1524 m
2020/01/27 21:00 LYPG 272100Z 26002KT 6000 1200SE R18/P2000N R36/1400U BCFG FEW013 BKN050 06/06 Q1019 NOSIG
LQSA - Sarajevo, Bosna i Hercegovina
Ažurirano: 27/01/2020 22:00
Magla, Oblačno
Magla, Oblačno
 Pravac vetra JI
Vetar: JI 6 km/h
Temperatura: 2°C
Tačka rose: 2°C
Vlažnost: 100%
Pritisak: 1018 hPa
Pregled: Magla
Oblaci: Oblačno
Vidljivost: 0 km
Cloud details: Oblačno 30 m
2020/01/27 21:00 LQSA 272100Z 13003KT 0150 R11/0225N FG VV001 02/02 Q1018
LDOS - Osijek, Hrvatksa
Ažurirano: 27/01/2020 22:00
Mist, Oblačno
Mist, Oblačno
 Pravac vetra J
Vetar: J 6 km/h
Temperatura: 3°C
Tačka rose: 2°C
Vlažnost: 93%
Pritisak: 1017 hPa
Pregled: Mist
Oblaci: Oblačno
Vidljivost: 5 km
Cloud details: Oblačno 91 m
2020/01/27 21:00 LDOS 272100Z 17003KT 5000 BR OVC003 03/02 Q1017